CYQK

Kenora Airport

Kenora, Ontario, Canada
METAR CYQK 182300Z 18011KT 10SM SCT240 25/18 A2987 RMK CI3 SLP115 DENSITY ALT 2900FT
Observed Flight Rules
Aug-18 @ 23:00 UTC (43 minutes ago) Visual Flight Rules
Wind Visibility Clouds
180° at 11 knots 10 miles
  • Scattered at 24,000' AGL
Temperatures Readings
Current 25°C / 77°F
Dewpoint 18°C / 64°F
Humidity 65%
Altimeter 29.87" Hg
Pressure 1011.5 hPa
Elevation 411
METAR CYQK 182300Z 18011KT 10SM SCT240 25/18 A2987 RMK CI3 SLP115 DENSITY ALT 2900FT
Observed Flight Rules
Aug-18 @ 23:00 UTC
(43 minutes ago)
VFR
Wind Visibility
180° at 11 knots 10 miles
Clouds
  • Scattered at 24,000' AGL
Temperature Dewpoint
25°C / 77°F 18°C / 64°F
Humidity Altimeter Pressure
65% 29.87" Hg 1011.5 hPa